Time;durP1;ratioP1;P1;durP2;ratioP2;P2;SDS_P1;SDS_P2;PMS_P1;PMS_P2;Temp;Humidity;BMP_temperature;BMP_pressure;BME280_temperature;BME280_humidity;BME280_pressure;Samples;Min_cycle;Max_cycle;Signal;HPM_P1;HPM_P2
2021/07/06 00:02:02;;;;;;;5.35;1.15;;;;;;;15.15;100.00;95382.13;4993374;28;20425;-77
2021/07/06 00:04:29;;;;;;;1.63;1.20;;;;;;;15.10;100.00;95392.16;4993534;28;20504;-77
2021/07/06 00:06:55;;;;;;;5.80;1.80;;;;;;;14.88;100.00;95392.38;4993402;28;20410;-77
2021/07/06 00:09:20;;;;;;;3.22;1.30;;;;;;;14.72;100.00;95391.06;4993224;28;20741;-77
2021/07/06 00:11:46;;;;;;;2.80;1.50;;;;;;;14.72;100.00;95379.78;4993515;28;20446;-77
2021/07/06 00:14:11;;;;;;;2.10;1.40;;;;;;;14.84;100.00;95383.16;4993370;28;20509;-78
2021/07/06 00:16:36;;;;;;;4.67;1.43;;;;;;;14.84;100.00;95380.56;4993100;28;20522;-77
2021/07/06 00:19:02;;;;;;;9.52;1.80;;;;;;;14.73;100.00;95381.47;4993190;28;20867;-77
2021/07/06 00:21:29;;;;;;;2.97;1.50;;;;;;;14.70;100.00;95384.31;5008257;28;20442;-77
2021/07/06 00:23:54;;;;;;;3.72;1.70;;;;;;;14.66;100.00;95382.94;4993087;28;20959;-78
2021/07/06 00:26:20;;;;;;;3.28;1.80;;;;;;;14.67;100.00;95380.19;4992703;28;20410;-77
2021/07/06 00:28:46;;;;;;;4.38;1.67;;;;;;;14.70;100.00;95377.31;4991890;28;20421;-77
2021/07/06 00:31:12;;;;;;;2.55;1.30;;;;;;;14.62;100.00;95377.16;4993076;28;20484;-77
2021/07/06 00:33:38;;;;;;;2.38;1.50;;;;;;;14.57;100.00;95371.50;5008070;28;20954;-77
2021/07/06 00:36:04;;;;;;;2.20;1.08;;;;;;;14.60;100.00;95373.03;4993101;28;20974;-77
2021/07/06 00:38:32;;;;;;;2.70;1.30;;;;;;;14.48;100.00;95367.03;5007746;28;20465;-77
2021/07/06 00:40:59;;;;;;;3.55;1.40;;;;;;;14.51;100.00;95364.22;4992789;28;20427;-77
2021/07/06 00:43:25;;;;;;;2.38;1.60;;;;;;;14.53;100.00;95364.91;4992697;28;20492;-77
2021/07/06 00:45:55;;;;;;;3.20;1.40;;;;;;;14.51;100.00;95361.63;4992680;28;20851;-77
2021/07/06 00:48:20;;;;;;;5.88;1.48;;;;;;;14.61;100.00;95359.03;4992828;28;20461;-77
2021/07/06 00:50:46;;;;;;;2.53;1.52;;;;;;;14.57;100.00;95350.66;5007817;28;20418;-77
2021/07/06 00:53:11;;;;;;;3.27;1.50;;;;;;;14.60;100.00;95358.22;4992435;28;20414;-77
2021/07/06 00:55:38;;;;;;;4.47;1.50;;;;;;;14.60;100.00;95353.00;4992229;28;20457;-77
2021/07/06 00:58:03;;;;;;;1.55;1.30;;;;;;;14.58;100.00;95346.28;4992710;28;20472;-77
2021/07/06 01:00:29;;;;;;;3.95;1.52;;;;;;;14.58;100.00;95344.50;5007729;28;20840;-77
2021/07/06 01:02:54;;;;;;;1.70;1.27;;;;;;;14.63;100.00;95344.91;4992416;28;20457;-77
2021/07/06 01:05:23;;;;;;;2.50;1.73;;;;;;;14.55;100.00;95338.72;4992295;28;20514;-77
2021/07/06 01:07:49;;;;;;;3.55;1.45;;;;;;;14.51;100.00;95338.16;4992224;28;20426;-77
2021/07/06 01:10:15;;;;;;;2.13;1.48;;;;;;;14.65;100.00;95340.41;4992672;28;20924;-77
2021/07/06 01:12:43;;;;;;;4.85;1.42;;;;;;;14.67;100.00;95346.31;4991621;28;20415;-77
2021/07/06 01:15:12;;;;;;;2.28;1.42;;;;;;;14.74;100.00;95346.59;4992191;28;20449;-77
2021/07/06 01:17:39;;;;;;;4.45;1.48;;;;;;;14.66;100.00;95331.63;4992390;28;20433;-77
2021/07/06 01:20:07;;;;;;;2.63;1.52;;;;;;;14.28;100.00;95340.91;4992160;28;20433;-77
2021/07/06 01:22:34;;;;;;;4.35;1.70;;;;;;;14.07;100.00;95342.69;4992428;28;20525;-77
2021/07/06 01:25:01;;;;;;;3.15;1.63;;;;;;;13.95;100.00;95339.34;4992110;28;20497;-77
2021/07/06 01:27:26;;;;;;;1.73;1.27;;;;;;;13.98;100.00;95338.28;5006999;28;20578;-77
2021/07/06 01:29:54;;;;;;;7.97;1.47;;;;;;;13.92;100.00;95338.78;4991952;28;20516;-77
2021/07/06 01:32:19;;;;;;;1.30;1.20;;;;;;;14.02;100.00;95329.25;5007062;28;20430;-77
2021/07/06 01:34:44;;;;;;;1.63;1.40;;;;;;;14.18;100.00;95331.38;5006963;28;20429;-77
2021/07/06 01:37:14;;;;;;;5.30;1.35;;;;;;;14.28;100.00;95322.69;4991609;28;20418;-77
2021/07/06 01:39:41;;;;;;;4.18;1.40;;;;;;;14.17;100.00;95322.75;4991626;28;20454;-77
2021/07/06 01:42:06;;;;;;;6.72;1.20;;;;;;;14.05;100.00;95318.56;4991893;28;20753;-77
2021/07/06 01:44:32;;;;;;;2.13;1.20;;;;;;;13.92;100.00;95320.56;5039397;23;20529;-75
2021/07/06 01:46:57;;;;;;;2.40;1.30;;;;;;;13.85;100.00;95316.81;5030693;28;20904;-75
2021/07/06 01:49:23;;;;;;;1.33;1.00;;;;;;;13.84;100.00;95315.97;5030676;28;20415;-75
2021/07/06 01:51:48;;;;;;;1.80;1.00;;;;;;;13.87;100.00;95310.53;5030772;28;20419;-75
2021/07/06 01:54:14;;;;;;;2.97;1.00;;;;;;;13.90;100.00;95309.44;5030916;28;20419;-75
2021/07/06 01:56:43;;;;;;;1.73;0.95;;;;;;;13.91;100.00;95293.69;5030675;28;20507;-75
2021/07/06 01:59:08;;;;;;;2.33;1.00;;;;;;;13.83;100.00;95313.47;5029401;28;20446;-75
2021/07/06 02:01:35;;;;;;;1.52;0.90;;;;;;;13.74;100.00;95302.88;5029495;28;20421;-74
2021/07/06 02:04:00;;;;;;;2.15;1.08;;;;;;;13.66;100.00;95309.69;5030505;28;20423;-75
2021/07/06 02:06:26;;;;;;;1.13;0.65;;;;;;;13.59;100.00;95308.53;5030414;28;20795;-75
2021/07/06 02:08:51;;;;;;;1.40;0.60;;;;;;;13.60;100.00;95313.59;5029490;28;20437;-75
2021/07/06 02:11:17;;;;;;;0.80;0.80;;;;;;;13.69;100.00;95307.66;5030709;28;20425;-75
2021/07/06 02:13:44;;;;;;;1.33;0.90;;;;;;;13.75;100.00;95306.31;5029371;28;20434;-75
2021/07/06 02:16:10;;;;;;;3.80;1.10;;;;;;;13.79;100.00;95305.09;5030341;28;20454;-74
2021/07/06 02:18:36;;;;;;;0.90;0.82;;;;;;;13.90;100.00;95292.03;5030881;28;20935;-75
2021/07/06 02:21:01;;;;;;;2.33;0.90;;;;;;;13.90;100.00;95289.41;5030712;28;20419;-75
2021/07/06 02:23:29;;;;;;;1.15;0.60;;;;;;;13.77;100.00;95292.22;5031122;28;20454;-75
2021/07/06 02:25:57;;;;;;;0.80;0.70;;;;;;;13.75;100.00;95303.72;5033325;28;20431;-75
2021/07/06 02:28:22;;;;;;;2.63;1.20;;;;;;;13.68;100.00;95298.22;5034534;28;20427;-75
2021/07/06 02:30:50;;;;;;;1.10;1.00;;;;;;;13.75;100.00;95288.91;5039659;28;20498;-74
2021/07/06 02:33:16;;;;;;;1.27;1.00;;;;;;;13.85;100.00;95286.38;5043559;28;20419;-75
2021/07/06 02:35:42;;;;;;;1.60;1.00;;;;;;;13.85;100.00;95280.38;5039575;28;20427;-75
2021/07/06 02:38:08;;;;;;;3.28;1.35;;;;;;;13.89;100.00;95287.78;5036669;28;20978;-75
2021/07/06 02:40:35;;;;;;;2.60;1.10;;;;;;;13.93;100.00;95276.16;5034315;28;20830;-75
2021/07/06 02:43:01;;;;;;;2.80;0.98;;;;;;;13.95;100.00;95281.25;5034305;28;20410;-75
2021/07/06 02:45:29;;;;;;;1.60;1.10;;;;;;;13.99;100.00;95280.03;5034053;28;20494;-75
2021/07/06 02:47:56;;;;;;;1.73;1.13;;;;;;;14.03;100.00;95289.22;5033112;28;20450;-75
2021/07/06 02:50:23;;;;;;;2.43;1.30;;;;;;;14.04;100.00;95285.66;5032632;28;20419;-75
2021/07/06 02:52:49;;;;;;;1.40;1.20;;;;;;;14.11;100.00;95288.59;5033916;28;20430;-75
2021/07/06 02:55:15;;;;;;;3.08;1.30;;;;;;;14.10;100.00;95285.16;5032583;28;20415;-75
2021/07/06 02:57:43;;;;;;;2.00;1.40;;;;;;;14.13;100.00;95284.91;5034079;28;20410;-75
2021/07/06 03:00:11;;;;;;;1.40;1.17;;;;;;;14.15;100.00;95277.78;5032717;28;20936;-75
2021/07/06 03:02:38;;;;;;;2.40;1.20;;;;;;;14.19;100.00;95278.34;5033854;28;20906;-75
2021/07/06 03:05:06;;;;;;;1.92;1.23;;;;;;;14.18;100.00;95281.91;5033967;28;20776;-75
2021/07/06 03:07:32;;;;;;;2.00;1.30;;;;;;;14.17;100.00;95278.47;5033528;28;20514;-75
2021/07/06 03:10:01;;;;;;;1.70;1.40;;;;;;;14.07;100.00;95268.97;5033843;28;21028;-75
2021/07/06 03:12:26;;;;;;;2.15;1.20;;;;;;;14.05;100.00;95274.28;5032421;28;20418;-75
2021/07/06 03:14:51;;;;;;;2.00;1.33;;;;;;;14.08;100.00;95273.22;5033570;28;20507;-75
2021/07/06 03:17:17;;;;;;;1.33;1.13;;;;;;;14.04;100.00;95268.25;5033399;28;20418;-75
2021/07/06 03:19:42;;;;;;;2.97;1.30;;;;;;;14.05;100.00;95261.28;5032330;28;20419;-75
2021/07/06 03:22:09;;;;;;;1.73;0.93;;;;;;;13.93;100.00;95262.31;5033399;28;20411;-75
2021/07/06 03:24:34;;;;;;;2.03;1.00;;;;;;;13.85;100.00;95262.97;5032123;28;20419;-75
2021/07/06 03:27:00;;;;;;;2.22;1.30;;;;;;;13.84;100.00;95252.69;5033182;28;20421;-75
2021/07/06 03:29:25;;;;;;;2.33;1.13;;;;;;;13.89;100.00;95247.91;5033360;28;20410;-75
2021/07/06 03:31:50;;;;;;;2.60;1.20;;;;;;;13.89;100.00;95234.91;5033346;28;20410;-75
2021/07/06 03:34:16;;;;;;;1.48;1.17;;;;;;;13.78;100.00;95238.41;5033202;28;20422;-75
2021/07/06 03:36:41;;;;;;;1.20;1.10;;;;;;;13.87;100.00;95234.19;5032603;28;20419;-75
2021/07/06 03:39:08;;;;;;;1.60;1.17;;;;;;;13.94;100.00;95235.31;5031974;28;20435;-75
2021/07/06 03:41:33;;;;;;;1.90;1.40;;;;;;;13.98;100.00;95221.94;5032254;28;20768;-75
2021/07/06 03:43:59;;;;;;;1.90;1.43;;;;;;;14.04;100.00;95228.38;5031558;28;20481;-75
2021/07/06 03:46:26;;;;;;;1.48;1.20;;;;;;;14.07;100.00;95228.13;5033043;28;20437;-75
2021/07/06 03:48:51;;;;;;;2.42;1.45;;;;;;;14.09;100.00;95217.56;5031712;28;20423;-75
2021/07/06 03:51:17;;;;;;;1.50;1.20;;;;;;;14.16;100.00;95216.91;5031786;28;20426;-75
2021/07/06 03:53:42;;;;;;;1.30;1.20;;;;;;;14.08;100.00;95219.34;5032836;28;20415;-76
2021/07/06 03:56:09;;;;;;;2.50;1.47;;;;;;;13.95;100.00;95221.38;5032739;28;20439;-75
2021/07/06 03:58:34;;;;;;;2.70;1.10;;;;;;;13.78;100.00;95215.78;5033154;28;20518;-75
2021/07/06 04:01:00;;;;;;;2.80;1.30;;;;;;;13.90;100.00;95208.72;5032901;28;20936;-76
2021/07/06 04:03:25;;;;;;;1.52;1.10;;;;;;;13.76;100.00;95225.53;5031426;28;20423;-75
2021/07/06 04:05:51;;;;;;;3.58;1.00;;;;;;;13.52;100.00;95219.75;5032554;28;20911;-75
2021/07/06 04:08:16;;;;;;;4.03;1.13;;;;;;;13.50;100.00;95221.69;5032632;28;20411;-76
2021/07/06 04:10:42;;;;;;;1.10;1.00;;;;;;;13.42;100.00;95231.88;5031632;28;20411;-76
2021/07/06 04:13:09;;;;;;;2.70;1.00;;;;;;;13.39;100.00;95234.75;5031097;28;20919;-76
2021/07/06 04:15:34;;;;;;;3.80;1.15;;;;;;;13.55;100.00;95229.91;5032225;28;20796;-76
2021/07/06 04:17:59;;;;;;;0.77;0.63;;;;;;;13.68;100.00;95220.16;5032451;28;20415;-75
2021/07/06 04:20:25;;;;;;;1.50;1.00;;;;;;;13.80;100.00;95203.50;5032428;28;20419;-75
2021/07/06 04:22:50;;;;;;;1.80;0.93;;;;;;;13.92;100.00;95203.41;5032187;28;20967;-76
2021/07/06 04:25:17;;;;;;;1.77;1.10;;;;;;;13.95;100.00;95203.16;5032083;28;20418;-76
2021/07/06 04:27:42;;;;;;;3.13;1.10;;;;;;;13.97;100.00;95202.03;5031099;28;20431;-75
2021/07/06 04:30:10;;;;;;;1.70;1.20;;;;;;;13.88;100.00;95202.00;5032265;28;20414;-74
2021/07/06 04:32:36;;;;;;;1.83;1.02;;;;;;;13.90;100.00;95205.31;5030794;28;20423;-74
2021/07/06 04:35:03;;;;;;;4.40;1.10;;;;;;;14.06;100.00;95205.66;5032083;28;20431;-74
2021/07/06 04:37:28;;;;;;;2.28;1.13;;;;;;;14.23;100.00;95196.38;5031966;28;20497;-74
2021/07/06 04:39:55;;;;;;;2.30;1.20;;;;;;;14.36;100.00;95191.78;5031936;28;20873;-75
2021/07/06 04:42:21;;;;;;;1.98;1.40;;;;;;;14.45;100.00;95195.34;5030681;28;20635;-75
2021/07/06 04:44:46;;;;;;;2.75;1.45;;;;;;;14.44;100.00;95198.91;5031819;28;20423;-75
2021/07/06 04:47:13;;;;;;;2.20;1.27;;;;;;;14.50;100.00;95206.25;5030550;28;20419;-75
2021/07/06 04:49:39;;;;;;;1.75;1.20;;;;;;;14.52;100.00;95201.69;5031763;28;20888;-75
2021/07/06 04:52:05;;;;;;;2.08;1.40;;;;;;;14.49;100.00;95212.34;5031861;28;20423;-75
2021/07/06 04:54:30;;;;;;;1.33;1.23;;;;;;;14.54;100.00;95214.63;5031722;28;20411;-74
2021/07/06 04:56:56;;;;;;;2.85;1.38;;;;;;;14.64;100.00;95218.84;5030218;28;20415;-75
2021/07/06 04:59:21;;;;;;;3.50;1.50;;;;;;;14.69;100.00;95211.47;5031996;28;20477;-74
2021/07/06 05:01:47;;;;;;;4.20;1.50;;;;;;;14.73;100.00;95214.63;5031765;28;20430;-75
2021/07/06 05:04:15;;;;;;;1.90;1.10;;;;;;;14.77;100.00;95221.22;5031549;28;20465;-75
2021/07/06 05:06:41;;;;;;;2.05;1.20;;;;;;;14.74;100.00;95209.28;5031310;28;20414;-75
2021/07/06 05:09:06;;;;;;;1.90;1.40;;;;;;;14.83;100.00;95204.19;5030435;28;20816;-75
2021/07/06 05:11:32;;;;;;;2.05;1.40;;;;;;;14.94;100.00;95196.25;5031546;28;20415;-75
2021/07/06 05:13:57;;;;;;;2.27;1.60;;;;;;;15.11;100.00;95197.38;5031353;28;20427;-75
2021/07/06 05:16:23;;;;;;;3.10;1.80;;;;;;;15.17;100.00;95189.81;5031101;28;20993;-75
2021/07/06 05:18:48;;;;;;;3.07;1.57;;;;;;;15.30;100.00;95188.69;5031248;28;20472;-75
2021/07/06 05:21:16;;;;;;;3.80;1.90;;;;;;;15.41;100.00;95191.16;5030000;28;20486;-74
2021/07/06 05:23:42;;;;;;;6.63;1.60;;;;;;;15.46;100.00;95196.75;5030154;28;20433;-75
2021/07/06 05:26:07;;;;;;;2.50;1.70;;;;;;;15.59;100.00;95194.69;5029570;28;20423;-74
2021/07/06 05:28:32;;;;;;;2.60;1.58;;;;;;;15.66;100.00;95208.84;5031221;28;20908;-75
2021/07/06 05:30:58;;;;;;;3.47;1.97;;;;;;;15.75;100.00;95207.19;5031217;28;20938;-75
2021/07/06 05:33:23;;;;;;;2.63;1.70;;;;;;;15.84;100.00;95206.34;5036359;28;20418;-75
2021/07/06 05:35:49;;;;;;;3.83;2.00;;;;;;;15.83;100.00;95220.34;5036084;28;20777;-75
2021/07/06 05:38:16;;;;;;;3.37;1.83;;;;;;;15.90;100.00;95210.16;5032290;28;20431;-75
2021/07/06 05:40:43;;;;;;;4.55;1.50;;;;;;;16.04;100.00;95211.50;5030794;28;20433;-75
2021/07/06 05:43:09;;;;;;;4.25;1.75;;;;;;;16.25;100.00;95221.72;5031512;28;20827;-75
2021/07/06 05:45:35;;;;;;;4.07;1.88;;;;;;;16.49;100.00;95223.81;5029741;28;20439;-77
2021/07/06 05:48:01;;;;;;;5.28;2.00;;;;;;;16.70;100.00;95214.72;5030259;28;20418;-77
2021/07/06 05:50:27;;;;;;;4.32;2.13;;;;;;;16.95;99.33;95214.22;5031786;28;20494;-78
2021/07/06 05:52:52;;;;;;;7.57;1.70;;;;;;;17.13;98.35;95226.31;5031261;28;20857;-78
2021/07/06 05:55:19;;;;;;;5.73;2.23;;;;;;;17.28;98.13;95233.63;5031179;28;20411;-76
2021/07/06 05:57:44;;;;;;;4.20;2.40;;;;;;;17.38;96.58;95242.22;5030274;28;20908;-77
2021/07/06 06:00:12;;;;;;;5.10;2.00;;;;;;;17.56;96.58;95248.25;5030371;28;20502;-77
2021/07/06 06:02:38;;;;;;;4.50;1.60;;;;;;;17.73;97.00;95237.94;5030646;28;20407;-77
2021/07/06 06:05:04;;;;;;;6.13;2.00;;;;;;;17.90;95.76;95232.66;5031829;28;20434;-76
2021/07/06 06:07:30;;;;;;;4.72;1.80;;;;;;;18.03;93.54;95229.63;5030412;28;20423;-75
2021/07/06 06:09:55;;;;;;;2.87;1.33;;;;;;;18.14;93.74;95231.16;5030584;28;20925;-76
2021/07/06 06:12:22;;;;;;;3.28;1.55;;;;;;;18.09;91.86;95233.41;5030837;28;20411;-76
2021/07/06 06:14:47;;;;;;;3.08;1.38;;;;;;;18.25;92.96;95230.91;5030775;28;20434;-76
2021/07/06 06:17:13;;;;;;;3.27;1.30;;;;;;;18.60;92.16;95211.50;5030330;28;20892;-76
2021/07/06 06:19:40;;;;;;;1.70;1.30;;;;;;;18.78;89.90;95206.19;5030453;28;20463;-76
2021/07/06 06:22:05;;;;;;;3.80;1.35;;;;;;;19.09;87.82;95206.41;5030595;28;20422;-75
2021/07/06 06:24:31;;;;;;;3.00;1.30;;;;;;;19.16;85.03;95200.50;5025837;28;20499;-76
2021/07/06 06:26:56;;;;;;;2.88;1.20;;;;;;;19.25;84.52;95224.00;5030259;28;20426;-70
2021/07/06 06:29:23;;;;;;;2.00;1.23;;;;;;;19.31;84.04;95225.13;5030608;28;20426;-74
2021/07/06 06:31:48;;;;;;;2.60;1.20;;;;;;;19.68;81.75;95229.09;5030553;28;20422;-75
2021/07/06 06:34:14;;;;;;;3.70;1.10;;;;;;;19.69;82.51;95236.84;5029054;28;20793;-74
2021/07/06 06:36:39;;;;;;;5.43;1.47;;;;;;;19.80;84.04;95240.91;5030261;28;20473;-74
2021/07/06 06:39:05;;;;;;;5.97;1.40;;;;;;;20.08;84.02;95237.94;5030478;28;21206;-74
2021/07/06 06:41:30;;;;;;;1.88;1.15;;;;;;;20.27;82.25;95242.81;5030391;28;20503;-74
2021/07/06 06:43:56;;;;;;;4.55;1.33;;;;;;;19.84;82.83;95237.00;5014818;28;20417;-74
2021/07/06 06:46:23;;;;;;;2.70;1.23;;;;;;;20.02;82.91;95237.63;5024753;28;20485;-74
2021/07/06 06:48:48;;;;;;;2.50;1.27;;;;;;;20.08;82.82;95240.56;5030015;28;20808;-74
2021/07/06 06:51:15;;;;;;;8.33;1.30;;;;;;;20.04;82.69;95238.25;5029704;28;20425;-74
2021/07/06 06:53:41;;;;;;;3.78;1.10;;;;;;;20.53;81.88;95224.97;5014371;28;20862;-74
2021/07/06 06:56:06;;;;;;;6.25;1.30;;;;;;;20.73;79.78;95232.47;5022936;28;20522;-74
2021/07/06 06:58:31;;;;;;;2.40;1.20;;;;;;;21.05;79.62;95231.47;5027690;28;20441;-74
2021/07/06 07:00:57;;;;;;;2.97;1.30;;;;;;;21.03;78.73;95229.03;5027816;28;20435;-74
2021/07/06 07:03:24;;;;;;;6.13;1.60;;;;;;;21.37;75.71;95233.09;5025867;28;20419;-74
2021/07/06 07:05:50;;;;;;;4.05;1.60;;;;;;;21.61;73.73;95229.44;5020974;28;20469;-74
2021/07/06 07:08:16;;;;;;;3.80;1.20;;;;;;;21.72;74.23;95236.94;5029571;28;20426;-74
2021/07/06 07:10:42;;;;;;;7.15;1.50;;;;;;;21.56;73.46;95244.16;5030563;28;20419;-75
2021/07/06 07:13:08;;;;;;;3.10;1.53;;;;;;;21.47;73.00;95244.22;5031586;28;20430;-74
2021/07/06 07:15:33;;;;;;;4.10;1.60;;;;;;;21.70;72.25;95248.66;5032635;28;20482;-76
2021/07/06 07:17:59;;;;;;;4.00;1.23;;;;;;;21.78;71.17;95243.31;5033358;28;20469;-76
2021/07/06 07:20:26;;;;;;;4.40;1.37;;;;;;;21.78;69.93;95250.41;5032967;28;20484;-75
2021/07/06 07:22:52;;;;;;;4.07;1.30;;;;;;;21.81;71.42;95242.16;5033307;28;20816;-75
2021/07/06 07:25:17;;;;;;;3.15;1.45;;;;;;;22.08;71.89;95238.91;5020265;28;20447;-75
2021/07/06 07:27:43;;;;;;;2.40;1.10;;;;;;;21.73;71.73;95235.94;5014325;28;20408;-75
2021/07/06 07:30:13;;;;;;;2.45;1.17;;;;;;;21.62;72.13;95241.66;5048752;28;20414;-75
2021/07/06 07:32:38;;;;;;;3.15;1.20;;;;;;;21.71;73.56;95242.38;5052875;28;20421;-75
2021/07/06 07:35:05;;;;;;;1.77;1.00;;;;;;;22.17;71.97;95221.22;5052653;28;20940;-74
2021/07/06 07:37:32;;;;;;;1.42;1.00;;;;;;;22.70;70.40;95216.66;5040045;28;20520;-75
2021/07/06 07:39:57;;;;;;;1.00;0.87;;;;;;;22.63;69.84;95221.03;5011554;28;20431;-75
2021/07/06 07:42:22;;;;;;;2.13;1.00;;;;;;;22.45;70.71;95216.94;5011738;28;20791;-75
2021/07/06 07:44:48;;;;;;;1.97;1.07;;;;;;;22.36;69.55;95209.28;5025721;28;20411;-75
2021/07/06 07:47:14;;;;;;;3.33;1.03;;;;;;;22.30;70.02;95210.84;5032780;28;20451;-74
2021/07/06 07:49:39;;;;;;;3.00;1.00;;;;;;;22.03;71.20;95208.81;5033795;28;20939;-75
2021/07/06 07:52:07;;;;;;;1.70;1.00;;;;;;;22.04;70.57;95207.81;5032704;28;20419;-75
2021/07/06 07:54:34;;;;;;;2.25;1.00;;;;;;;22.18;69.60;95209.69;5032021;28;20431;-75
2021/07/06 07:56:59;;;;;;;5.18;1.20;;;;;;;21.90;70.05;95207.59;5032343;28;20470;-75
2021/07/06 07:59:25;;;;;;;1.73;1.10;;;;;;;21.89;70.65;95219.16;5032679;28;20458;-75
2021/07/06 08:01:50;;;;;;;4.40;1.35;;;;;;;22.18;70.97;95228.16;5030310;28;20419;-74
2021/07/06 08:04:16;;;;;;;2.30;1.00;;;;;;;22.78;69.30;95224.47;5031936;28;20810;-75
2021/07/06 08:06:41;;;;;;;1.48;1.10;;;;;;;22.76;69.59;95210.63;5022620;28;20427;-75
2021/07/06 08:09:08;;;;;;;1.60;1.17;;;;;;;22.77;69.30;95230.75;5032128;28;20997;-75
2021/07/06 08:11:34;;;;;;;3.10;1.02;;;;;;;22.68;69.80;95245.03;5032263;28;20927;-75
2021/07/06 08:14:00;;;;;;;3.13;1.20;;;;;;;22.77;68.82;95249.22;5031962;28;20415;-75
2021/07/06 08:16:25;;;;;;;4.13;1.30;;;;;;;22.74;70.30;95275.19;5031827;28;20436;-75
2021/07/06 08:18:51;;;;;;;2.30;1.20;;;;;;;22.71;69.71;95279.00;5031910;28;20465;-75
2021/07/06 08:21:17;;;;;;;2.33;1.07;;;;;;;22.80;66.76;95282.34;5030598;28;20477;-75
2021/07/06 08:23:42;;;;;;;1.20;0.93;;;;;;;22.99;67.89;95283.63;5031701;28;20881;-76
2021/07/06 08:26:08;;;;;;;1.60;1.13;;;;;;;23.28;67.65;95299.41;5022813;28;20419;-76
2021/07/06 08:28:34;;;;;;;3.00;1.30;;;;;;;23.60;65.61;95310.53;5032589;28;20896;-75
2021/07/06 08:31:00;;;;;;;3.25;0.80;;;;;;;23.39;66.78;95312.13;5032260;28;20962;-75
2021/07/06 08:33:25;;;;;;;4.17;1.27;;;;;;;23.43;66.33;95321.34;5033423;28;20415;-75
2021/07/06 08:35:51;;;;;;;7.03;3.50;;;;;;;23.34;66.81;95322.47;5039323;28;20417;-75
2021/07/06 08:38:17;;;;;;;8.33;1.90;;;;;;;22.95;68.73;95338.63;5039356;28;20748;-76
2021/07/06 08:40:43;;;;;;;4.28;1.65;;;;;;;22.84;68.86;95345.19;5035285;28;20426;-77
2021/07/06 08:43:08;;;;;;;6.28;2.47;;;;;;;22.87;69.62;95343.97;5031120;28;20507;-77
2021/07/06 08:45:35;;;;;;;5.63;2.17;;;;;;;22.85;69.54;95346.00;5031793;28;20415;-76
2021/07/06 08:48:01;;;;;;;11.55;4.85;;;;;;;22.81;71.18;95353.47;5028877;28;20427;-77
2021/07/06 08:50:27;;;;;;;24.58;8.35;;;;;;;22.73;70.90;95347.44;5026213;28;20456;-77
2021/07/06 08:52:53;;;;;;;51.55;15.25;;;;;;;22.69;71.18;95373.38;5029484;28;20447;-76
2021/07/06 08:55:20;;;;;;;14.30;2.95;;;;;;;22.46;72.19;95368.16;5026906;28;20488;-76
2021/07/06 08:57:46;;;;;;;6.97;2.45;;;;;;;22.32;73.48;95375.06;5028205;28;20967;-75
2021/07/06 09:00:14;;;;;;;4.00;1.85;;;;;;;22.26;73.91;95388.16;5031985;28;20976;-75
2021/07/06 09:02:53;;;;;;;37.83;11.47;;;;;;;22.03;74.91;95417.16;5031381;28;20411;-75
2021/07/06 09:05:19;;;;;;;11.35;4.35;;;;;;;21.22;77.76;95429.72;5023653;28;20481;-75
2021/07/06 09:07:44;;;;;;;11.40;3.65;;;;;;;20.31;85.97;95450.03;5031390;28;20411;-75
2021/07/06 09:10:11;;;;;;;29.27;9.10;;;;;;;19.66;91.76;95449.97;5020003;28;20486;-76
2021/07/06 09:12:37;;;;;;;3.47;1.87;;;;;;;19.27;94.11;95447.00;5011999;28;20975;-75
2021/07/06 09:15:17;;;;;;;8.63;3.00;;;;;;;18.91;97.14;95467.28;5011616;28;20417;-75
2021/07/06 09:17:44;;;;;;;13.10;3.03;;;;;;;18.66;95.44;95469.75;5010385;28;20427;-75
2021/07/06 09:20:11;;;;;;;3.10;1.60;;;;;;;18.61;95.67;95469.38;5010414;28;20471;-75
2021/07/06 09:22:37;;;;;;;12.17;4.00;;;;;;;18.76;93.08;95464.41;5011759;28;20424;-75
2021/07/06 09:25:06;;;;;;;42.67;14.02;;;;;;;18.96;92.68;95462.44;5011670;28;20440;-75
2021/07/06 09:27:34;;;;;;;3.17;1.00;;;;;;;18.93;88.78;95475.84;5011185;28;20460;-75
2021/07/06 09:30:06;;;;;;;0.85;0.50;;;;;;;18.95;89.98;95473.88;5010164;28;20478;-75
2021/07/06 09:32:31;;;;;;;3.30;0.50;;;;;;;18.96;89.29;95480.78;5014768;28;20484;-75
2021/07/06 09:35:04;;;;;;;0.33;0.33;;;;;;;19.07;86.86;95477.91;5022543;28;20417;-75
2021/07/06 09:37:30;;;;;;;0.20;0.20;;;;;;;19.12;87.34;95480.06;5018046;28;20439;-75
2021/07/06 09:40:00;;;;;;;2.67;0.20;;;;;;;19.27;88.32;95454.88;5011443;28;20424;-75
2021/07/06 09:42:25;;;;;;;0.33;0.27;;;;;;;19.07;85.51;95449.84;5010036;28;20463;-77
2021/07/06 09:44:53;;;;;;;0.23;0.10;;;;;;;19.17;86.22;95448.91;5010280;28;20961;-77
2021/07/06 09:47:19;;;;;;;0.17;0.10;;;;;;;19.24;85.95;95447.28;5017582;28;20427;-76
2021/07/06 09:49:54;;;;;;;0.20;0.20;;;;;;;19.24;85.56;95445.50;5024359;28;20403;-78
2021/07/06 09:52:22;;;;;;;0.60;0.20;;;;;;;19.26;83.93;95451.41;5019803;28;20487;-77
2021/07/06 09:54:49;;;;;;;0.20;0.10;;;;;;;19.16;83.68;95439.38;5018101;28;20437;-77
2021/07/06 09:57:22;;;;;;;1.05;0.20;;;;;;;19.39;87.24;95435.22;5029107;28;20425;-78
2021/07/06 10:00:00;;;;;;;0.20;0.20;;;;;;;19.49;86.73;95435.09;5021301;28;20921;-75
2021/07/06 10:02:26;;;;;;;0.28;0.15;;;;;;;19.13;84.01;95427.38;5030797;28;20462;-75
2021/07/06 10:04:53;;;;;;;1.00;0.20;;;;;;;19.15;85.29;95437.75;5030745;28;20421;-75
2021/07/06 10:07:18;;;;;;;0.77;0.30;;;;;;;19.26;84.33;95440.91;5022352;28;20414;-75
2021/07/06 10:09:45;;;;;;;0.87;0.20;;;;;;;19.33;85.67;95435.88;5029650;28;20425;-76
2021/07/06 10:12:11;;;;;;;0.30;0.20;;;;;;;19.35;83.80;95439.13;5030961;28;20422;-76
2021/07/06 10:14:37;;;;;;;0.50;0.23;;;;;;;19.20;82.00;95440.72;5030822;28;20470;-75
2021/07/06 10:17:05;;;;;;;2.03;0.27;;;;;;;19.21;83.76;95440.56;5030697;28;20852;-76
2021/07/06 10:19:33;;;;;;;0.98;0.30;;;;;;;19.41;83.16;95433.25;5030764;28;20789;-75
2021/07/06 10:21:59;;;;;;;1.90;0.30;;;;;;;19.73;84.30;95432.56;5022611;28;20511;-76
2021/07/06 10:24:25;;;;;;;2.30;0.20;;;;;;;19.76;80.08;95413.00;5029433;28;20478;-75
2021/07/06 10:26:58;;;;;;;1.50;0.30;;;;;;;19.53;78.97;95404.91;5030562;28;20410;-75
2021/07/06 10:29:30;;;;;;;0.73;0.20;;;;;;;19.61;79.14;95410.16;5031939;28;20418;-75
2021/07/06 10:31:56;;;;;;;0.20;0.20;;;;;;;19.74;80.25;95410.56;5031760;28;20453;-76
2021/07/06 10:34:22;;;;;;;0.20;0.20;;;;;;;19.75;78.68;95406.13;5030536;28;20832;-76
2021/07/06 10:36:48;;;;;;;0.68;0.22;;;;;;;19.77;79.85;95407.63;5031209;28;20436;-76
2021/07/06 10:39:15;;;;;;;0.20;0.20;;;;;;;19.88;80.60;95408.31;5030510;28;20411;-76
2021/07/06 10:41:56;;;;;;;0.20;0.17;;;;;;;19.78;78.22;95397.94;5030763;28;20435;-76
2021/07/06 10:44:32;;;;;;;0.43;0.25;;;;;;;19.90;78.23;95393.16;5030457;28;20615;-76
2021/07/06 10:46:57;;;;;;;0.88;0.28;;;;;;;19.91;78.42;95392.19;5033730;28;20481;-76
2021/07/06 10:49:31;;;;;;;0.50;0.20;;;;;;;20.03;80.10;95404.03;5034332;28;20517;-76
2021/07/06 10:51:59;;;;;;;0.30;0.20;;;;;;;20.17;77.83;95395.50;5034592;28;20429;-76
2021/07/06 10:54:37;;;;;;;0.65;0.32;;;;;;;20.16;77.41;95398.28;5032978;28;20921;-76
2021/07/06 10:57:23;;;;;;;0.50;0.20;;;;;;;20.05;77.40;95405.50;5033723;28;20427;-76
2021/07/06 10:59:52;;;;;;;2.20;0.20;;;;;;;19.92;78.71;95407.00;5034084;28;20510;-76
2021/07/06 11:02:22;;;;;;;1.58;0.40;;;;;;;20.04;78.59;95417.00;5034124;28;20427;-77
2021/07/06 11:04:52;;;;;;;0.20;0.20;;;;;;;20.15;78.80;95431.66;5030518;28;20812;-76
2021/07/06 11:07:48;;;;;;;2.10;0.43;;;;;;;20.41;79.49;95423.59;5026499;28;20477;-76
2021/07/06 11:10:16;;;;;;;1.13;0.40;;;;;;;20.62;78.92;95433.66;5032499;28;20502;-76
2021/07/06 11:12:44;;;;;;;0.70;0.10;;;;;;;20.66;78.05;95431.50;5019581;28;20419;-75
2021/07/06 11:15:19;;;;;;;0.30;0.30;;;;;;;20.82;76.55;95425.38;5019408;28;20426;-77
2021/07/06 11:17:46;;;;;;;0.60;0.30;;;;;;;20.89;76.64;95427.16;5024639;28;20424;-78
2021/07/06 11:20:13;;;;;;;1.85;0.30;;;;;;;20.97;75.78;95429.78;5024054;28;20419;-77
2021/07/06 11:22:40;;;;;;;1.00;0.40;;;;;;;21.09;76.43;95434.69;5025591;28;20770;-81
2021/07/06 11:25:21;;;;;;;2.78;0.30;;;;;;;21.10;75.37;95442.44;5024003;28;20467;-77
2021/07/06 11:27:57;;;;;;;1.25;0.30;;;;;;;20.99;74.24;95448.88;5019283;28;20779;-80